Impacts METAR Board
IDs:

KMDW - Chicago/Midway Intl, IL, US

Updated at: 1000 UTC 22 May 2018
Potential Impact None Slight Moderate High
Time 21/22Z 21/23Z 22/00Z 22/01Z 22/02Z 22/03Z 22/04Z 22/05Z 22/06Z 22/07Z 22/08Z 22/09Z 22/10Z
Temp63 64 64 64 62 60 58 58 57 57 57 57 56
Dewpt62 62 62 61 61 59 58 57 57 57 57 56 56
Altim29.98 29.98 29.98 29.97 29.98 29.99 29.99 29.98 29.97 29.96 29.96 29.97 29.98
VIS3 2.5 5 5 1.75 1.5 1.75 1.75 1.75 1.5 1.25 1.25 1.5
CIG34 34 28 50 17 13 4 4 4 4 5 4 3
CoverOVCOVCOVCBKNBKNBKNOVCOVCOVCOVCOVCOVCOVC
FltCatMVFRIFRMVFRMVFRIFRIFRLIFRLIFRLIFRLIFRIFRLIFRLIFR
WXBR-RA BRBRBRBRBRBRBRBRBRBRBRBR
WDir400020360360501004010036010
WSpd6 4 0 3 4 5 3 4 0 5 3 6 4
WGst-- -- -- -- -- -- -- -- -- -- -- -- --
Raw hourly METARs
KMDW 212153Z 04006KT 3SM BR FEW005 SCT014 OVC034 17/17 A2998 RMK AO2 RAE03 SLP150 P0000 T01720167
KMDW 212253Z VRB04KT 2 1/2SM -RA BR FEW007 SCT017 OVC034 18/17 A2998 RMK AO2 RAB12 SLP150 P0000 T01780167
KMDW 212353Z 00000KT 5SM BR SCT014 BKN028 OVC033 18/17 A2998 RMK AO2 RAE02 SLP149 P0000 60035 T01780167 10178 20144 56008
KMDW 220053Z 02003KT 5SM BR FEW028 BKN050 18/16 A2997 RMK AO2 SLP148 T01780161
KMDW 220153Z 36004KT 1 3/4SM BR BKN017 17/16 A2998 RMK AO2 SLP150 T01670161
KMDW 220253Z 36005KT 1 1/2SM BR FEW004 BKN013 16/15 A2999 RMK AO2 SLP154 T01560150 53005
KMDW 220353Z 05003KT 1 3/4SM BR BKN004 OVC010 14/14 A2999 RMK AO2 SLP153 T01440144
KMDW 220453Z 01004KT 1 3/4SM BR OVC004 14/14 A2998 RMK AO2 SLP150 T01440139
KMDW 220553Z 00000KT 1 3/4SM BR OVC004 14/14 A2997 RMK AO2 SLP148 T01390139 10183 20139 401830100 58005
KMDW 220653Z 04005KT 1 1/2SM BR OVC004 14/14 A2996 RMK AO2 SLP143 T01390139
KMDW 220753Z 10003KT 1 1/4SM BR BKN005 OVC037 14/14 A2996 RMK AO2 RAB05E52 SLP144 P0005 T01390139
KMDW 220853Z 36006KT 1 1/4SM BR OVC004 14/13 A2997 RMK AO2 SLP148 60005 T01390133 50005
KMDW 220953Z 01004KT 1 1/2SM BR OVC003 13/13 A2998 RMK AO2 DZB12E27 SLP149 P0000 T01330133



Page loaded:  10:16 UTC  |   03:16 AM Pacific  |   04:16 AM Mountain  |   05:16 AM Central  |   06:16 AM Eastern

 

ADVISORIES

FORECASTS

FORECASTS

OBSERVATIONS

USER TOOLS

ABOUT US